Flight Track Log - Related Links

Times and Time Zones

All times are in EDT time to prevent confusion due to time zone crossing. See the N7DJ flight status page for this flight to view local times or setup timezone preferences in your user account.

Time Position Orientation Groundspeed Altitude Reporting Facility
EDT Latitude Longitude Course Direction KTS MPH feet Rate Location/Type
Fri 01:54:59 PM 33.6833 -116.1500 311° West 267 307 5,900  Level Southern California TRACON
Fri 01:55:32 PM 33.7161 -116.1961 324° Northwest 282 325 7,400 2,645 Climbing Los Angeles Center
Fri 01:56:32 PM 33.7786 -116.2511 328° Northwest 297 342 10,000 2,400 Climbing Los Angeles Center
Fri 01:57:32 PM 33.8414 -116.2989 322° Northwest 291 335 12,200 1,550 Climbing Los Angeles Center
Fri 01:58:32 PM 33.9100 -116.3639 318° Northwest 298 343 13,100 1,550 Climbing Los Angeles Center
Fri 01:59:32 PM 33.9828 -116.4419 323° Northwest 324 373 15,300 2,350 Climbing Los Angeles Center
Fri 02:00:32 PM 34.0536 -116.5072 340° North 329 379 17,800 1,850 Climbing Los Angeles Center
Fri 02:01:32 PM 34.1350 -116.5428 347° North 329 379 19,000 1,550 Climbing Los Angeles Center
Fri 02:02:32 PM 34.2331 -116.5708 336° Northwest 334 384 20,900 1,950 Climbing Los Angeles Center
Fri 02:03:32 PM 34.3247 -116.6192 343° North 346 398 22,900 1,050 Climbing Los Angeles Center
Fri 02:04:32 PM 34.4267 -116.6578 334° Northwest 364 419 23,000 50 Climbing Los Angeles Center
Fri 02:05:32 PM 34.5267 -116.7164 274° West 386 444 23,000 100 Level Los Angeles Center
Fri 02:06:32 PM 34.5342 -116.8550 265° West 361 415 23,200 950 Climbing Los Angeles Center
Fri 02:07:32 PM 34.5250 -116.9886 278° West 360 414 24,900 1,433 Climbing Los Angeles Center
Fri 02:09:32 PM 34.5542 -117.2411 282° West 379 436 27,500 1,367 Climbing Los Angeles Center
Fri 02:10:32 PM 34.5761 -117.3625 276° West 379 436 29,000 1,350 Climbing Los Angeles Center
Fri 02:11:32 PM 34.5872 -117.4914 275° West 379 436 30,200 1,250 Climbing Los Angeles Center
Fri 02:12:32 PM 34.5961 -117.6125 273° West 374 430 31,500 1,200 Climbing Los Angeles Center
Fri 02:13:32 PM 34.6008 -117.7364 277° West 374 430 32,600 1,100 Climbing Los Angeles Center
Fri 02:14:32 PM 34.6139 -117.8578 275° West 369 425 33,700 1,008 Climbing Los Angeles Center
Fri 02:15:31 PM 34.6206 -117.9564 278° West 363 418 34,600 1,100 Climbing Los Angeles Center
Fri 02:16:32 PM 34.6372 -118.0981 303° West 363 418 35,900 694 Climbing Los Angeles Center
Fri 02:17:32 PM 34.6919 -118.2003 325° Northwest 356 410 36,000 50 Climbing Los Angeles Center
Fri 02:18:32 PM 34.7783 -118.2733 308° West 356 410 36,000  Level Los Angeles Center
Fri 02:19:32 PM 34.8433 -118.3739 306° West 366 421 36,000  Level Los Angeles Center
Fri 02:20:43 PM 34.9119 -118.4897 301° West 379 436 36,000  Level Los Angeles Center
Fri 02:21:44 PM 34.9742 -118.6183 331° Northwest 373 429 36,000  Level Los Angeles Center
Fri 02:22:44 PM 35.0728 -118.6847 352° North 379 436 36,000  Level Los Angeles Center
Fri 02:23:44 PM 35.1831 -118.7033 352° North 380 437 36,000  Level Los Angeles Center
Fri 02:24:44 PM 35.2953 -118.7222 345° North 390 449 36,000  Level Los Angeles Center
Fri 02:25:44 PM 35.4053 -118.7586 346° North 395 455 36,000  Level Los Angeles Center
Fri 02:28:01 PM 35.6447 -118.8325 346° North 398 458 36,000  Level Oakland Center
Fri 02:29:02 PM 35.7539 -118.8653 341° North 398 458 36,000  Level Oakland Center
Fri 02:30:01 PM 35.8589 -118.9111 342° North 398 458 36,000  Level Oakland Center
Fri 02:31:02 PM 35.9639 -118.9544 344° North 398 458 36,000  Level Oakland Center
Fri 02:32:01 PM 36.0689 -118.9928 336° Northwest 398 458 36,000  Level Oakland Center
Fri 02:33:02 PM 36.1700 -119.0494 332° Northwest 392 451 36,000  Level Oakland Center
Fri 02:34:02 PM 36.2650 -119.1114 337° Northwest 387 445 36,000  Level Oakland Center
Fri 02:35:01 PM 36.3636 -119.1633 336° Northwest 387 445 36,000  Level Oakland Center
Fri 02:36:02 PM 36.4731 -119.2253 335° Northwest 387 445 36,000  Level Oakland Center
Fri 02:37:02 PM 36.5719 -119.2825 338° Northwest 387 445 36,000  Level Oakland Center
Fri 02:38:01 PM 36.6728 -119.3344 333° Northwest 387 445 36,000  Level Oakland Center
Fri 02:39:02 PM 36.7697 -119.3972 337° Northwest 387 445 36,000  Level Oakland Center
Fri 02:40:01 PM 36.8686 -119.4497 336° Northwest 387 445 36,000  Level Oakland Center
Fri 02:41:01 PM 36.9672 -119.5050 332° Northwest 387 445 36,000  Level Oakland Center
Fri 02:42:01 PM 37.0619 -119.5681 330° Northwest 382 440 36,000  Level Oakland Center
Fri 02:43:01 PM 37.1544 -119.6342 336° Northwest 382 440 36,000  Level Oakland Center
Fri 02:44:01 PM 37.2553 -119.6897 334° Northwest 382 440 36,000  Level Oakland Center
Fri 02:45:02 PM 37.3308 -119.7356 336° Northwest 382 440 36,000  Level Oakland Center
Fri 02:46:02 PM 37.4378 -119.7964 335° Northwest 382 440 36,000  Level Oakland Center
Fri 02:47:02 PM 37.5322 -119.8525 336° Northwest 382 440 36,000  Level Oakland Center
Fri 02:48:02 PM 37.6308 -119.9089 335° Northwest 382 440 36,000  Level Oakland Center
Fri 02:49:02 PM 37.7272 -119.9653 339° North 387 445 36,000  Level Oakland Center
Fri 02:50:01 PM 37.8300 -120.0164 335° Northwest 387 445 36,000  Level Oakland Center
Fri 02:51:01 PM 37.9242 -120.0731 339° North 382 440 36,000  Level Oakland Center
Fri 02:52:01 PM 38.0267 -120.1219 339° North 382 440 36,000  Level Oakland Center
Fri 02:53:02 PM 38.1272 -120.1708 340° North 382 440 36,000  Level Oakland Center
Fri 02:54:02 PM 38.2278 -120.2172 340° North 382 440 36,000  Level Oakland Center
Fri 02:55:02 PM 38.3281 -120.2639 339° North 382 440 36,000  Level Oakland Center
Fri 02:56:01 PM 38.4283 -120.3133 340° North 382 440 36,000  Level Oakland Center
Fri 02:57:01 PM 38.5308 -120.3603 340° North 382 440 36,000  Level Oakland Center
Fri 02:58:02 PM 38.6333 -120.4072 343° North 387 445 36,000  Level Oakland Center
Fri 02:59:02 PM 38.7503 -120.4542 341° North 392 451 36,000  Level Oakland Center
Fri 03:00:01 PM 38.8528 -120.4989 337° Northwest 392 451 36,000  Level Oakland Center
Fri 03:01:01 PM 38.9531 -120.5542 341° North 392 451 36,000  Level Oakland Center
Fri 03:02:01 PM 39.0367 -120.5911 337° Northwest 392 451 36,000  Level Oakland Center
Fri 03:03:01 PM 39.1556 -120.6575 337° Northwest 392 451 36,000  Level Oakland Center
Fri 03:04:01 PM 39.2581 -120.7133 339° North 392 451 36,000  Level Oakland Center
Fri 03:05:02 PM 39.3603 -120.7639 336° Northwest 392 451 36,000  Level Oakland Center
Fri 03:06:01 PM 39.4603 -120.8228 334° Northwest 392 451 36,000  Level Oakland Center
Fri 03:07:02 PM 39.5583 -120.8844 338° Northwest 397 457 36,000  Level Oakland Center
Fri 03:08:01 PM 39.6586 -120.9383 338° Northwest 397 457 36,000  Level Oakland Center
Fri 03:09:01 PM 39.7606 -120.9922 335° Northwest 397 457 36,000  Level Oakland Center
Fri 03:10:02 PM 39.8628 -121.0544 337° Northwest 397 457 36,000  Level Oakland Center
Fri 03:11:02 PM 39.9650 -121.1117 339° North 397 457 36,000  Level Oakland Center
Fri 03:12:01 PM 40.0669 -121.1633 333° Northwest 397 457 36,000  Level Oakland Center
Fri 03:13:01 PM 40.1669 -121.2289 330° Northwest 397 457 36,000  Level Oakland Center
Fri 03:14:01 PM 40.2606 -121.2997 323° Northwest 397 457 36,000  Level Oakland Center
Fri 03:15:01 PM 40.3478 -121.3875 329° Northwest 392 451 36,000  Level Oakland Center
Fri 03:16:01 PM 40.4433 -121.4644 336° Northwest 397 457 36,000  Level Oakland Center
Fri 03:17:03 PM 40.5422 -121.5217 337° Northwest 400 460 36,000  Level Seattle Center
Fri 03:18:05 PM 40.6458 -121.5789 338° Northwest 401 461 36,000  Level Seattle Center
Fri 03:19:06 PM 40.7511 -121.6356 334° Northwest 406 467 36,000  Level Seattle Center
Fri 03:20:08 PM 40.8531 -121.7025 337° Northwest 408 470 36,000  Level Seattle Center
Fri 03:21:09 PM 40.9586 -121.7614 334° Northwest 408 470 36,000  Level Seattle Center
Fri 03:22:11 PM 41.0614 -121.8267 328° Northwest 409 471 36,000  Level Seattle Center
Fri 03:23:12 PM 41.1569 -121.9069 326° Northwest 405 466 36,000  Level Seattle Center
Fri 03:24:14 PM 41.2539 -121.9925 333° Northwest 411 473 36,000  Level Seattle Center
Fri 03:25:16 PM 41.3756 -122.0750 330° Northwest 410 472 36,000  Level Seattle Center
Fri 03:26:17 PM 41.4719 -122.1497 331° Northwest 402 463 36,000  Level Seattle Center
Fri 03:27:19 PM 41.5719 -122.2228 337° Northwest 406 467 36,000  Level Seattle Center
Fri 03:28:20 PM 41.6758 -122.2819 329° Northwest 404 465 36,000  Level Seattle Center
Fri 03:29:22 PM 41.7728 -122.3600 327° Northwest 403 464 36,000  Level Seattle Center
Fri 03:30:23 PM 41.8681 -122.4419 331° Northwest 403 464 36,000  Level Seattle Center
Fri 03:31:25 PM 41.9686 -122.5183 329° Northwest 409 471 36,000  Level Seattle Center
Fri 03:32:26 PM 42.0672 -122.5978 327° Northwest 409 471 36,000  Level Seattle Center
Fri 03:33:28 PM 42.1625 -122.6811 339° North 407 468 36,000  Level Seattle Center
Fri 03:34:29 PM 42.2683 -122.7367 342° North 416 479 36,000  Level Seattle Center
Fri 03:35:30 PM 42.3786 -122.7842 339° North 415 478 36,000  Level Seattle Center
Fri 03:36:32 PM 42.4853 -122.8406 335° Northwest 412 474 36,000  Level Seattle Center
Fri 03:37:33 PM 42.6089 -122.9200 North 409 471 36,000  Level Seattle Center
Fri 03:38:35 PM 42.7242 -122.9003 21° North 427 491 36,000  Level Seattle Center
Fri 03:39:36 PM 42.8261 -122.8467 North 435 501 36,000  Level Seattle Center
Fri 03:40:38 PM 42.9669 -122.8386 354° North 423 487 36,000  Level Seattle Center
Fri 03:41:39 PM 43.0822 -122.8539 360° North 418 481 36,000  Level Seattle Center
Fri 03:42:40 PM 43.1969 -122.8542 North 413 475 36,000  Level Seattle Center
Fri 03:43:42 PM 43.3147 -122.8272 North 426 490 36,000  Level Seattle Center
Fri 03:44:43 PM 43.4314 -122.8075 North 426 490 36,000  Level Seattle Center
Fri 03:45:45 PM 43.5494 -122.7969 North 428 493 36,000  Level Seattle Center
Fri 03:46:46 PM 43.6661 -122.7831 11° North 424 488 36,000 -537 Level Seattle Center
Fri 03:47:48 PM 43.7814 -122.7528 North 423 487 34,900 -1,366 Descending Seattle Center
Fri 03:48:49 PM 43.8986 -122.7306 360° North 426 490 33,200 -2,049 Descending Seattle Center
Fri 03:49:51 PM 44.0422 -122.7314 358° North 432 497 30,700 -2,195 Descending Seattle Center
Fri 03:50:52 PM 44.1608 -122.7381 North 431 496 28,700 -2,016 Descending Seattle Center
Fri 03:51:53 PM 44.2786 -122.7328 North 426 490 26,600 -2,049 Descending Seattle Center
Fri 03:52:55 PM 44.3936 -122.7256 357° North 428 493 24,500 -2,195 Descending Seattle Center
Fri 03:53:56 PM 44.5117 -122.7347 355° North 424 488 22,100 -2,293 Descending Seattle Center
Fri 03:54:58 PM 44.6233 -122.7478 North 414 476 19,800 -2,345 Descending Seattle Center
Fri 03:55:46 PM 44.7317 -122.7419 11° North 418 481 17,800 -2,582 Descending Seattle Center
Fri 03:56:17 PM 44.7894 -122.7264 10° North 403 464 16,400 -2,640 Descending Seattle Center
Fri 03:57:01 PM 44.8639 -122.7078 North 396 456 14,500 -2,359 Descending Seattle Center
Fri 03:58:14 PM 44.9608 -122.6906 352° North 373 429 11,800 -2,044 Descending Seattle Center
Fri 03:59:16 PM 45.0656 -122.7108 327° Northwest 332 382 9,900 -1,700 Descending Seattle Center
Fri 04:00:14 PM 45.1364 -122.7761 333° Northwest 298 343 8,400 -1,412 Descending Seattle Center
Fri 04:01:15 PM 45.2058 -122.8267 339° North 284 327 7,100 -905 Descending Seattle Center
Fri 04:02:20 PM 45.2689 -122.8614 347° North 262 302 6,500 -744 Descending Seattle Center
Fri 04:03:16 PM 45.3314 -122.8814 354° North 204 235 5,600 -878 Descending Seattle Center
Fri 04:04:23 PM 45.3858 -122.8892 360° North 187 215 4,700 -844 Descending Seattle Center
Fri 04:05:24 PM 45.4342 -122.8892 353° North 180 207 3,800 -1,131 Descending Seattle Center
Fri 04:06:25 PM 45.4728 -122.8964 334° Northwest 152 175 2,400 -1,339 Descending Seattle Center
Fri 04:07:25 PM 45.5053 -122.9189 323° Northwest 141 162 1,100 -645 Descending Seattle Center
Fri 04:08:26 PM 45.5114 -122.9256 323° Northwest 141 162 1,100  Level Seattle Center

Login

Don't have an account? Register now (free) for customized features, flight alerts, and more!